Civil Air Patrol

Glenn L. Martin Composite Squadron

Welcome to the Glenn L. Martin Composite

We are the official auxiliary of the United States Air Force.

Our 3 main missions are cadet programs, aerospace education and emergency services.

Click each link to learn more about each mission.

Here is a short video from National Headquarters about CAP


Current METAR for KMTN (Martin State Airport)

KMTN 270203Z AUTO 00000KT 10SM CLR 25/22 A3006 RMK AO2

Current TAF for KBWI (Baltimore Washington International)

TAF AMD KBWI 262037Z 2621/2724 30012KT P6SM FEW070 FM270000 25005KT P6SM FEW250 FM271800 30005KT P6SM FEW070